createdAt,value
2022-11-13T00:02:10.210Z,101875.34
2022-11-13T00:04:58.682Z,101873.50
2022-11-13T00:07:45.578Z,101864.34
2022-11-13T00:10:32.211Z,101861.53
2022-11-13T00:13:18.866Z,101872.81
2022-11-13T00:16:07.474Z,101868.94
2022-11-13T00:18:54.414Z,101871.09
2022-11-13T00:21:42.851Z,101865.19
2022-11-13T00:24:29.782Z,101873.25
2022-11-13T00:27:16.662Z,101865.78
2022-11-13T00:30:03.784Z,101867.59
2022-11-13T00:32:51.299Z,101865.53
2022-11-13T00:35:38.541Z,101873.50
2022-11-13T00:38:27.331Z,101867.97
2022-11-13T00:41:14.285Z,101872.19
2022-11-13T00:44:01.492Z,101873.16
2022-11-13T00:46:48.780Z,101874.47
2022-11-13T00:49:35.521Z,101867.09
2022-11-13T00:52:22.789Z,101866.38
2022-11-13T00:55:11.456Z,101860.00
2022-11-13T00:57:58.577Z,101864.34
2022-11-13T01:00:47.783Z,101857.34
2022-11-13T01:03:34.945Z,101851.94
2022-11-13T01:06:23.700Z,101845.38
2022-11-13T01:09:10.912Z,101854.22
2022-11-13T01:11:59.097Z,101845.97
2022-11-13T01:14:46.510Z,101845.63
2022-11-13T01:17:33.639Z,101844.16
2022-11-13T01:20:20.959Z,101833.44
2022-11-13T01:23:07.642Z,101842.09
2022-11-13T01:25:54.787Z,101846.47
2022-11-13T01:28:44.198Z,101840.06
2022-11-13T01:31:31.951Z,101829.69
2022-11-13T01:34:19.241Z,101831.84
2022-11-13T01:37:06.714Z,101834.88
2022-11-13T01:39:53.934Z,101836.31
2022-11-13T01:42:41.301Z,101836.81
2022-11-13T01:45:52.900Z,101836.78
2022-11-13T01:48:42.031Z,101829.69
2022-11-13T01:51:31.956Z,101831.75
2022-11-13T01:54:20.871Z,101835.00
2022-11-13T01:57:08.135Z,101824.25
2022-11-13T01:59:59.266Z,101825.72
2022-11-13T02:02:47.411Z,101822.66
2022-11-13T02:05:35.086Z,101825.19
2022-11-13T02:08:22.100Z,101811.94
2022-11-13T02:11:08.826Z,101815.19
2022-11-13T02:13:56.317Z,101817.25
2022-11-13T02:16:44.513Z,101821.81
2022-11-13T02:19:35.757Z,101813.72
2022-11-13T02:22:27.045Z,101821.09
2022-11-13T02:25:15.466Z,101811.03
2022-11-13T02:28:02.255Z,101812.16
2022-11-13T02:30:49.568Z,101808.84
2022-11-13T02:33:36.883Z,101812.88
2022-11-13T02:36:26.726Z,101805.47
2022-11-13T02:39:14.413Z,101816.50
2022-11-13T02:42:02.854Z,101815.06
2022-11-13T02:44:49.952Z,101811.31
2022-11-13T02:47:36.999Z,101810.50
2022-11-13T02:50:23.935Z,101813.97
2022-11-13T02:53:10.821Z,101811.94
2022-11-13T02:55:57.581Z,101807.94
2022-11-13T02:58:45.789Z,101808.06
2022-11-13T03:01:33.091Z,101806.84
2022-11-13T03:04:20.302Z,101808.16
2022-11-13T03:07:07.482Z,101803.69
2022-11-13T03:09:54.739Z,101814.50
2022-11-13T03:12:41.735Z,101811.31
2022-11-13T03:15:30.131Z,101806.97
2022-11-13T03:18:16.785Z,101802.38
2022-11-13T03:21:08.501Z,101805.19
2022-11-13T03:23:55.979Z,101808.19
2022-11-13T03:26:43.142Z,101813.13
2022-11-13T03:29:30.195Z,101813.38
2022-11-13T03:32:18.704Z,101810.94
2022-11-13T03:35:06.099Z,101813.88
2022-11-13T03:37:53.489Z,101818.22
2022-11-13T03:40:40.532Z,101820.97
2022-11-13T03:43:27.774Z,101823.28
2022-11-13T03:46:15.090Z,101820.41
2022-11-13T03:49:03.437Z,101826.91
2022-11-13T03:51:50.543Z,101820.63
2022-11-13T03:54:37.401Z,101826.19
2022-11-13T03:57:24.373Z,101827.13
2022-11-13T04:00:12.546Z,101823.16
2022-11-13T04:02:59.425Z,101825.09
2022-11-13T04:05:48.710Z,101822.28
2022-11-13T04:08:35.786Z,101818.81
2022-11-13T04:11:22.896Z,101818.31
2022-11-13T04:14:09.360Z,101827.28
2022-11-13T04:16:56.456Z,101818.94
2022-11-13T04:19:43.326Z,101821.72
2022-11-13T04:22:31.853Z,101824.25
2022-11-13T04:25:19.170Z,101827.75
2022-11-13T04:28:06.280Z,101817.97
2022-11-13T04:30:54.525Z,101814.34
2022-11-13T04:33:41.694Z,101824.38
2022-11-13T04:36:28.799Z,101820.25
2022-11-13T04:39:17.183Z,101828.13
2022-11-13T04:42:22.175Z,101821.94
2022-11-13T04:45:09.733Z,101825.59
2022-11-13T04:47:56.818Z,101822.06
2022-11-13T04:50:43.854Z,101818.56
2022-11-13T04:53:31.016Z,101826.78
2022-11-13T04:56:19.532Z,101826.88
2022-11-13T04:59:06.077Z,101821.09
2022-11-13T05:01:53.514Z,101831.00
2022-11-13T05:04:40.962Z,101824.13
2022-11-13T05:07:28.057Z,101831.75
2022-11-13T05:10:15.317Z,101833.66
2022-11-13T05:13:03.534Z,101833.66
2022-11-13T05:15:50.700Z,101828.94
2022-11-13T05:18:38.738Z,101827.38
2022-11-13T05:21:25.972Z,101833.66
2022-11-13T05:24:13.216Z,101835.97
2022-11-13T05:27:00.051Z,101843.91
2022-11-13T05:29:48.395Z,101837.78
2022-11-13T05:32:35.569Z,101844.06
2022-11-13T05:35:22.465Z,101845.97
2022-11-13T05:38:08.929Z,101848.13
2022-11-13T05:40:56.149Z,101851.69
2022-11-13T05:43:43.425Z,101854.44
2022-11-13T05:46:31.956Z,101857.94
2022-11-13T05:49:19.129Z,101860.72
2022-11-13T05:52:06.312Z,101855.03
2022-11-13T05:54:53.462Z,101853.72
2022-11-13T05:57:40.394Z,101858.91
2022-11-13T06:00:27.488Z,101857.31
2022-11-13T06:03:15.692Z,101862.03
2022-11-13T06:06:03.111Z,101859.88
2022-11-13T06:08:51.239Z,101848.75
2022-11-13T06:11:38.143Z,101858.66
2022-11-13T06:14:25.269Z,101857.34
2022-11-13T06:17:12.144Z,101850.09
2022-11-13T06:20:00.897Z,101857.56
2022-11-13T06:22:47.955Z,101859.50
2022-11-13T06:25:34.670Z,101858.06
2022-11-13T06:28:21.523Z,101866.38
2022-11-13T06:31:09.955Z,101866.16
2022-11-13T06:33:58.357Z,101866.63
2022-11-13T06:36:46.706Z,101868.22
2022-11-13T06:39:34.742Z,101866.38
2022-11-13T06:42:21.842Z,101858.78
2022-11-13T06:45:09.805Z,101864.09
2022-11-13T06:47:56.856Z,101860.72
2022-11-13T06:50:48.264Z,101866.63
2022-11-13T06:53:36.947Z,101863.72
2022-11-13T06:56:24.001Z,101870.06
2022-11-13T06:59:10.734Z,101870.59
2022-11-13T07:01:57.812Z,101867.94
2022-11-13T07:04:44.628Z,101860.84
2022-11-13T07:07:31.513Z,101864.84
2022-11-13T07:10:19.954Z,101866.38
2022-11-13T07:13:07.090Z,101871.34
2022-11-13T07:15:54.470Z,101869.88
2022-11-13T07:18:41.465Z,101866.25
2022-11-13T07:21:28.287Z,101865.06
2022-11-13T07:24:17.075Z,101858.66
2022-11-13T07:27:06.113Z,101864.59
2022-11-13T07:29:53.150Z,101864.31
2022-11-13T07:32:40.161Z,101864.94
2022-11-13T07:35:27.483Z,101859.53
2022-11-13T07:38:14.131Z,101859.75
2022-11-13T07:41:01.584Z,101858.06
2022-11-13T07:43:50.026Z,101859.22
2022-11-13T07:46:36.980Z,101858.03
2022-11-13T07:49:23.962Z,101859.34
2022-11-13T07:52:10.805Z,101857.69
2022-11-13T07:54:58.096Z,101860.94
2022-11-13T07:57:45.016Z,101859.63
2022-11-13T08:00:35.689Z,101853.00
2022-11-13T08:03:23.129Z,101854.03
2022-11-13T08:06:10.555Z,101856.91
2022-11-13T08:08:57.427Z,101863.16
2022-11-13T08:11:44.194Z,101861.94
2022-11-13T08:14:31.355Z,101860.75
2022-11-13T08:17:19.699Z,101868.47
2022-11-13T08:20:07.652Z,101863.50
2022-11-13T08:22:54.515Z,101867.34
2022-11-13T08:25:41.309Z,101869.53
2022-11-13T08:28:28.486Z,101867.16
2022-11-13T08:31:17.775Z,101867.97
2022-11-13T08:34:06.499Z,101862.84
2022-11-13T08:36:53.548Z,101862.53
2022-11-13T08:39:40.488Z,101860.00
2022-11-13T08:42:27.671Z,101865.66
2022-11-13T08:45:14.764Z,101865.56
2022-11-13T08:48:02.276Z,101866.25
2022-11-13T08:50:53.979Z,101865.66
2022-11-13T08:53:40.993Z,101867.47
2022-11-13T08:56:28.258Z,101874.25
2022-11-13T08:59:14.786Z,101870.16
2022-11-13T09:02:01.719Z,101867.72
2022-11-13T09:04:48.458Z,101869.03
2022-11-13T09:07:37.088Z,101864.34
2022-11-13T09:10:24.296Z,101862.19
2022-11-13T09:13:11.868Z,101857.50
2022-11-13T09:15:59.641Z,101857.91
2022-11-13T09:18:46.413Z,101844.91
2022-11-13T09:21:33.560Z,101844.66
2022-11-13T09:24:21.931Z,101844.28
2022-11-13T09:27:08.703Z,101840.81
2022-11-13T09:29:55.934Z,101845.91
2022-11-13T09:32:43.326Z,101842.19
2022-11-13T09:35:37.525Z,101846.09
2022-11-13T09:38:25.180Z,101842.03
2022-11-13T09:41:14.968Z,101852.28
2022-11-13T09:44:04.329Z,101848.84
2022-11-13T09:46:54.034Z,101846.66
2022-11-13T09:49:44.688Z,101838.47
2022-11-13T09:52:35.286Z,101837.31
2022-11-13T09:55:24.583Z,101830.69
2022-11-13T09:58:20.260Z,101837.03
2022-11-13T10:01:10.772Z,101833.28
2022-11-13T10:04:04.157Z,101825.38
2022-11-13T10:06:59.548Z,101830.97
2022-11-13T10:09:57.504Z,101821.75
2022-11-13T10:12:46.027Z,101815.25
2022-11-13T10:15:34.580Z,101820.59
2022-11-13T10:18:24.162Z,101817.09
2022-11-13T10:21:17.554Z,101803.59
2022-11-13T10:24:14.165Z,101813.13
2022-11-13T10:27:01.691Z,101811.78
2022-11-13T10:29:49.326Z,101815.97
2022-11-13T10:32:38.508Z,101808.31
2022-11-13T10:35:36.934Z,101811.22
2022-11-13T10:38:27.112Z,101813.13
2022-11-13T10:41:15.718Z,101803.91
2022-11-13T10:44:02.687Z,101806.44
2022-11-13T10:46:50.304Z,101808.66
2022-11-13T10:49:38.356Z,101804.06
2022-11-13T10:52:27.872Z,101801.97
2022-11-13T10:55:19.342Z,101802.34
2022-11-13T10:58:14.952Z,101801.28
2022-11-13T11:01:01.793Z,101800.47
2022-11-13T11:03:52.393Z,101789.53
2022-11-13T11:07:18.471Z,101785.47
2022-11-13T11:09:52.199Z,101790.94
2022-11-13T11:12:39.071Z,101787.59
2022-11-13T11:15:29.477Z,101792.81
2022-11-13T11:18:23.823Z,101786.56
2022-11-13T11:21:14.174Z,101787.13
2022-11-13T11:24:07.956Z,101787.59
2022-11-13T11:27:01.208Z,101792.59
2022-11-13T11:29:52.696Z,101789.75
2022-11-13T11:32:43.448Z,101787.59
2022-11-13T11:35:38.643Z,101790.41
2022-11-13T11:38:28.352Z,101798.81
2022-11-13T11:41:19.919Z,101788.84
2022-11-13T11:44:16.693Z,101777.50
2022-11-13T11:47:03.921Z,101781.91
2022-11-13T11:49:51.053Z,101768.66
2022-11-13T11:52:53.387Z,101765.97
2022-11-13T11:55:50.055Z,101774.03
2022-11-13T11:59:04.729Z,101773.25
2022-11-13T12:02:22.598Z,101769.16
2022-11-13T12:05:21.735Z,101764.19
2022-11-13T12:08:23.910Z,101765.47
2022-11-13T12:11:16.948Z,101755.97
2022-11-13T12:14:15.335Z,101753.16
2022-11-13T12:17:16.899Z,101750.75
2022-11-13T12:20:15.089Z,101751.50
2022-11-13T12:23:12.952Z,101748.63
2022-11-13T12:26:04.361Z,101752.88
2022-11-13T12:28:57.516Z,101754.38
2022-11-13T12:31:53.854Z,101753.56
2022-11-13T12:34:44.559Z,101746.06
2022-11-13T12:37:36.994Z,101745.44
2022-11-13T12:40:28.748Z,101743.34
2022-11-13T12:43:35.797Z,101748.41
2022-11-13T12:46:23.136Z,101744.09
2022-11-13T12:49:27.971Z,101737.22
2022-11-13T12:52:20.560Z,101737.09
2022-11-13T12:55:10.198Z,101730.78
2022-11-13T12:57:58.577Z,101738.88
2022-11-13T13:00:54.522Z,101732.84
2022-11-13T13:03:58.266Z,101735.81
2022-11-13T13:06:56.107Z,101735.97
2022-11-13T13:10:00.596Z,101738.00
2022-11-13T13:12:54.861Z,101732.91
2022-11-13T13:15:46.618Z,101727.75
2022-11-13T13:18:34.831Z,101727.28
2022-11-13T13:21:22.671Z,101730.50
2022-11-13T13:24:28.825Z,101730.28
2022-11-13T13:27:23.454Z,101715.78
2022-11-13T13:30:17.884Z,101720.16
2022-11-13T13:33:15.637Z,101727.53
2022-11-13T13:36:12.492Z,101724.50
2022-11-13T13:39:06.293Z,101715.78
2022-11-13T13:42:20.617Z,101717.34
2022-11-13T13:45:22.349Z,101713.56
2022-11-13T13:48:13.030Z,101711.72
2022-11-13T13:51:01.076Z,101712.44
2022-11-13T13:53:49.526Z,101714.28
2022-11-13T13:56:41.296Z,101706.00
2022-11-13T13:59:31.712Z,101695.59
2022-11-13T14:02:19.794Z,101697.56
2022-11-13T14:05:25.328Z,101699.50
2022-11-13T14:08:18.468Z,101705.78
2022-11-13T14:11:17.996Z,101698.19
2022-11-13T14:14:09.432Z,101698.97
2022-11-13T14:17:00.437Z,101692.16
2022-11-13T14:19:50.906Z,101703.81
2022-11-13T14:22:37.935Z,101707.59
2022-11-13T14:25:27.843Z,101698.03
2022-11-13T14:28:19.530Z,101696.69
2022-11-13T14:31:09.257Z,101698.34
2022-11-13T14:33:58.288Z,101702.88
2022-11-13T14:36:45.457Z,101697.34
2022-11-13T14:39:33.856Z,101693.47
2022-11-13T14:42:22.771Z,101692.00
2022-11-13T14:45:16.157Z,101692.50
2022-11-13T14:48:05.142Z,101691.81
2022-11-13T14:50:55.700Z,101695.44
2022-11-13T14:53:43.075Z,101691.66
2022-11-13T14:56:34.572Z,101691.09
2022-11-13T14:59:27.167Z,101688.56
2022-11-13T15:02:14.589Z,101678.03
2022-11-13T15:05:01.884Z,101675.91
2022-11-13T15:07:51.013Z,101671.84
2022-11-13T15:10:38.578Z,101675.81
2022-11-13T15:13:25.839Z,101672.25
2022-11-13T15:16:14.603Z,101666.41
2022-11-13T15:19:04.550Z,101664.09
2022-11-13T15:22:33.617Z,101665.63
2022-11-13T15:25:00.166Z,101660.91
2022-11-13T15:27:47.134Z,101665.69
2022-11-13T15:30:34.127Z,101660.22
2022-11-13T15:33:20.836Z,101662.69
2022-11-13T15:36:10.111Z,101660.59
2022-11-13T15:38:57.186Z,101653.63
2022-11-13T15:41:47.180Z,101658.19
2022-11-13T15:44:34.074Z,101660.31
2022-11-13T15:47:29.004Z,101657.56
2022-11-13T15:50:16.230Z,101666.19
2022-11-13T15:53:05.665Z,101670.94
2022-11-13T15:55:52.856Z,101663.31
2022-11-13T15:58:41.026Z,101674.81
2022-11-13T16:01:28.190Z,101667.91
2022-11-13T16:04:16.485Z,101670.81
2022-11-13T16:07:03.459Z,101657.97
2022-11-13T16:09:50.578Z,101662.63
2022-11-13T16:12:37.852Z,101662.75
2022-11-13T16:15:26.346Z,101664.91
2022-11-13T16:18:20.933Z,101664.19
2022-11-13T16:21:08.024Z,101669.38
2022-11-13T16:23:55.166Z,101680.13
2022-11-13T16:26:42.995Z,101663.78
2022-11-13T16:29:30.967Z,101665.44
2022-11-13T16:32:19.078Z,101665.47
2022-11-13T16:35:06.516Z,101672.50
2022-11-13T16:37:53.322Z,101669.25
2022-11-13T16:40:41.585Z,101679.50
2022-11-13T16:43:28.752Z,101676.91
2022-11-13T16:46:20.473Z,101674.75
2022-11-13T16:49:13.592Z,101669.38
2022-11-13T16:52:00.590Z,101677.38
2022-11-13T16:54:47.668Z,101675.94
2022-11-13T16:57:34.496Z,101676.84
2022-11-13T17:00:21.503Z,101677.66
2022-11-13T17:03:08.290Z,101680.56
2022-11-13T17:05:56.542Z,101673.69
2022-11-13T17:08:43.666Z,101678.53
2022-11-13T17:11:32.504Z,101679.34
2022-11-13T17:14:19.778Z,101681.69
2022-11-13T17:17:08.623Z,101678.38
2022-11-13T17:19:55.529Z,101675.16
2022-11-13T17:22:48.367Z,101678.97
2022-11-13T17:25:35.879Z,101671.31
2022-11-13T17:28:23.061Z,101677.66
2022-11-13T17:31:12.621Z,101674.84
2022-11-13T17:33:59.436Z,101672.28
2022-11-13T17:36:46.819Z,101669.97
2022-11-13T17:39:35.283Z,101673.00
2022-11-13T17:42:22.156Z,101666.25
2022-11-13T17:45:10.152Z,101661.91
2022-11-13T17:47:56.877Z,101666.56
2022-11-13T17:50:44.276Z,101661.91
2022-11-13T17:53:32.111Z,101658.50
2022-11-13T17:56:20.818Z,101657.94
2022-11-13T17:59:08.269Z,101657.53
2022-11-13T18:01:55.353Z,101653.56
2022-11-13T18:04:42.738Z,101652.66
2022-11-13T18:07:29.993Z,101647.81
2022-11-13T18:10:17.778Z,101643.59
2022-11-13T18:13:06.222Z,101645.88
2022-11-13T18:15:53.545Z,101657.47
2022-11-13T18:18:41.373Z,101646.81
2022-11-13T18:21:30.285Z,101654.59
2022-11-13T18:24:18.870Z,101648.78
2022-11-13T18:27:06.914Z,101656.63
2022-11-13T18:29:55.786Z,101652.31
2022-11-13T18:32:42.738Z,101644.16
2022-11-13T18:35:29.640Z,101649.47
2022-11-13T18:38:16.803Z,101647.41
2022-11-13T18:41:04.475Z,101646.38
2022-11-13T18:43:53.126Z,101645.66
2022-11-13T18:46:41.762Z,101644.47
2022-11-13T18:49:28.841Z,101646.72
2022-11-13T18:52:15.886Z,101640.38
2022-11-13T18:55:02.791Z,101640.31
2022-11-13T18:57:50.263Z,101647.56
2022-11-13T19:00:37.351Z,101648.06
2022-11-13T19:03:26.231Z,101640.59
2022-11-13T19:06:16.079Z,101642.34
2022-11-13T19:09:05.328Z,101651.94
2022-11-13T19:11:52.025Z,101650.22
2022-11-13T19:14:38.990Z,101661.69
2022-11-13T19:17:26.111Z,101653.13
2022-11-13T19:20:14.255Z,101664.84
2022-11-13T19:23:05.171Z,101659.16
2022-11-13T19:25:55.630Z,101649.75
2022-11-13T19:28:42.762Z,101663.09
2022-11-13T19:31:31.178Z,101663.28
2022-11-13T19:34:18.467Z,101659.16
2022-11-13T19:37:06.696Z,101659.28
2022-11-13T19:39:53.951Z,101656.72
2022-11-13T19:42:42.190Z,101656.00
2022-11-13T19:45:29.635Z,101664.41
2022-11-13T19:48:28.834Z,101661.13
2022-11-13T19:51:17.370Z,101654.75
2022-11-13T19:54:05.673Z,101659.47
2022-11-13T19:56:53.925Z,101658.19
2022-11-13T19:59:42.806Z,101663.25
2022-11-13T20:02:31.130Z,101659.00
2022-11-13T20:05:19.283Z,101655.63
2022-11-13T20:08:07.526Z,101657.97
2022-11-13T20:11:03.644Z,101660.59
2022-11-13T20:13:52.017Z,101666.00
2022-11-13T20:16:40.027Z,101665.53
2022-11-13T20:19:28.932Z,101665.47
2022-11-13T20:22:19.229Z,101662.81
2022-11-13T20:25:07.160Z,101663.41
2022-11-13T20:27:57.939Z,101660.75
2022-11-13T20:30:46.292Z,101667.91
2022-11-13T20:33:35.558Z,101653.28
2022-11-13T20:36:24.239Z,101655.44
2022-11-13T20:39:12.091Z,101655.38
2022-11-13T20:42:00.012Z,101653.50
2022-11-13T20:44:49.540Z,101652.16
2022-11-13T20:47:37.676Z,101652.41
2022-11-13T20:50:25.654Z,101653.28
2022-11-13T20:53:19.067Z,101652.78
2022-11-13T20:56:08.691Z,101656.22
2022-11-13T20:58:56.500Z,101646.78
2022-11-13T21:01:46.555Z,101650.19
2022-11-13T21:04:34.798Z,101648.16
2022-11-13T21:07:24.446Z,101656.63
2022-11-13T21:10:12.316Z,101654.22
2022-11-13T21:13:01.137Z,101653.97
2022-11-13T21:15:51.199Z,101654.94
2022-11-13T21:18:41.460Z,101657.00
2022-11-13T21:21:29.094Z,101648.78
2022-11-13T21:24:17.195Z,101644.16
2022-11-13T21:27:04.437Z,101646.13
2022-11-13T21:29:51.507Z,101650.31
2022-11-13T21:32:38.682Z,101653.13
2022-11-13T21:35:27.259Z,101641.56
2022-11-13T21:38:13.759Z,101642.75
2022-11-13T21:41:19.197Z,101637.97
2022-11-13T21:44:08.406Z,101638.69
2022-11-13T21:46:55.592Z,101643.00
2022-11-13T21:49:42.531Z,101649.19
2022-11-13T21:52:31.336Z,101641.78
2022-11-13T21:55:18.368Z,101635.81
2022-11-13T21:58:05.565Z,101635.78
2022-11-13T22:00:52.435Z,101635.06
2022-11-13T22:03:39.395Z,101634.56
2022-11-13T22:06:27.959Z,101630.53
2022-11-13T22:09:17.961Z,101635.84
2022-11-13T22:12:06.005Z,101629.50
2022-11-13T22:14:52.951Z,101636.38
2022-11-13T22:17:41.200Z,101637.72
2022-11-13T22:20:28.195Z,101632.81
2022-11-13T22:23:15.088Z,101636.63
2022-11-13T22:26:05.108Z,101631.25
2022-11-13T22:28:53.237Z,101638.00
2022-11-13T22:31:40.453Z,101629.09
2022-11-13T22:34:27.213Z,101624.03
2022-11-13T22:37:14.379Z,101620.41
2022-11-13T22:40:01.366Z,101619.00
2022-11-13T22:42:49.807Z,101609.97
2022-11-13T22:45:36.970Z,101615.19
2022-11-13T22:48:23.888Z,101617.03
2022-11-13T22:51:12.698Z,101614.31
2022-11-13T22:54:00.778Z,101610.38
2022-11-13T22:56:47.977Z,101603.44
2022-11-13T22:59:36.597Z,101608.03
2022-11-13T23:02:23.346Z,101604.34
2022-11-13T23:05:09.975Z,101611.41
2022-11-13T23:07:57.441Z,101608.28
2022-11-13T23:10:44.614Z,101599.88
2022-11-13T23:13:31.393Z,101599.53
2022-11-13T23:16:20.282Z,101599.19
2022-11-13T23:19:07.452Z,101595.25
2022-11-13T23:21:54.389Z,101600.13
2022-11-13T23:24:41.228Z,101592.22
2022-11-13T23:27:28.237Z,101589.56
2022-11-13T23:30:16.211Z,101598.81
2022-11-13T23:33:04.685Z,101590.28
2022-11-13T23:35:52.038Z,101596.66
2022-11-13T23:38:38.988Z,101595.22
2022-11-13T23:41:26.067Z,101598.00
2022-11-13T23:44:12.725Z,101598.63
2022-11-13T23:46:59.827Z,101593.53
2022-11-13T23:49:48.066Z,101591.84
2022-11-13T23:52:35.116Z,101583.38
2022-11-13T23:55:22.610Z,101588.13
2022-11-13T23:58:12.136Z,101583.41
